UKOO Airport Information

Runway Information
Runway 07 Length 1815 ft width 197 ft
Elevation 0 ft Threshold 0 ft Heading 75
Runway 25 Length 1815 ft Width 197 ft
Elevation 0 ft Threshold 0 ft Heading 255
Runway 16 Length 9183 ft width 184 ft
Elevation 172 ft Threshold 0 ft Heading 163
Runway 34 Length 9183 ft Width 184 ft
Elevation 165 ft Threshold 0 ft Heading 343
Runway 18 Length 2950 ft width 190 ft
Elevation 0 ft Threshold 0 ft Heading 182
Runway 36 Length 2950 ft Width 190 ft
Elevation 0 ft Threshold 0 ft Heading 2
Airport Frequencies
Type APP Name RADAR Frequency 120.9 MHZ
Type ATIS Name ATIS Frequency 124.8 MHZ
Type GND Name GND Frequency 121.8 MHZ
Type TWR Name TWR Frequency 125.5 MHZ
Airport Navaids
Type VOR-DME Name Odesa Frequency 113950 KHZ
Airport Weather Information & NOTAM
ADDS - METARS form results

(2222 UTC 18 February 2019)
Data provider http://aviationweather.gov/metar/data/
 
METAR text: UKOO 182200Z 06001MPS CAVOK 01/M04 Q1025 R16/090060 NOSIG
Conditions at: UKOO (ODESSA/TSENTRALN, UA) observed 2200 UTC 18 February 2019
Temperature: 1.0°C (34°F)
Dewpoint: -4.0°C (25°F) [RH = 69%]
Pressure (altimeter): 30.27 inches Hg (1025.0 mb)
Winds: from the ENE (60 degrees) at 2 MPH (2 knots; 1.0 m/s)
Visibility: 6 or more miles (10+ km)
Ceiling: ceiling and visibility are OK
Clouds: unknown
Weather: no significant weather observed at this time

METAR text: UKOO 182130Z 05001MPS CAVOK 02/M05 Q1025 R16/090060 NOSIG
Conditions at: UKOO (ODESSA/TSENTRALN, UA) observed 2130 UTC 18 February 2019
Temperature: 2.0°C (36°F)
Dewpoint: -5.0°C (23°F) [RH = 60%]
Pressure (altimeter): 30.27 inches Hg (1025.0 mb)
Winds: from the NE (50 degrees) at 2 MPH (2 knots; 1.0 m/s)
Visibility: 6 or more miles (10+ km)
Ceiling: ceiling and visibility are OK
Clouds: unknown
Weather: no significant weather observed at this time

Forecast for: UKOO (ODESSA/TSENTRALN, UA)
Text: TAF UKOO 181705Z 1818/1918 03003MPS 2100 BR BKN007 SCT020CB TX06/1911Z TN03/1903Z
Forecast period: 1800 UTC 18 February 2019 to 1100 UTC 19 February 2019
Forecast type: FROM: standard forecast or significant change
Winds: from the NNE (30 degrees) at 7 MPH (6 knots; 3.1 m/s)
Visibility: 1.30 miles (2.09 km)
Ceiling: 700 feet AGL
Clouds: broken clouds at 700 feet AGL
scattered clouds at 2000 feet AGL
Weather: BR  (mist)
Text: BECMG 1911/1912 14003MPS 6000 NSW
Forecast period: 1100 to 1800 UTC 19 February 2019
Forecast type: BECOMING: Conditions expected to become as follows by 1200 UTC 19 February 2019
Winds: from the SE (140 degrees) at 7 MPH (6 knots; 3.1 m/s)
Visibility: 4 miles (6 km)
Ceiling: 700 feet AGL
Clouds: broken clouds at 700 feet AGL
scattered clouds at 2000 feet AGL
Weather: NSW  (no significant weather)